Phoenix, New York
Current Conditions -  °F | °C
As of 3:54 PM on Thursday 23 Oct 2014 (Local Time) from KFZY Reporting Station
Overcast Overcast  
Wind Chill: 54°   Ceiling: 3200
Heat Index: 54°   Visibility: 10mi
Dew Point: 41°   Wind: 9mph
Humidity: 62%   Direction: 360°N
Pressure: 29.96"   Gusts: NA
Location:  43.23°N, 76.3°W
Report Text: KFZY 231954Z AUTO 36008KT 10SM OVC032 12/05 A2996 RMK AO2 SLP145 T01220050
Loading
Personal Weather Stations






























Interactive Weather Map
Tropical Storm Tracking
New forecast layout! Learn more

10-Day Weather Forecast

Advertisements
Track Severe Weather on mobile